高雄國際航空站 - 塔台/地面席

SPECI RCKH 130836Z 34008KT 310V020 6000 VCTS -SHRA FEW008 FEW010CB SCT018 BKN035 27/26 Q1010 RESHRA NOSIG RMK TS NW-N MOV NW A2983=

站台狀態:Online
最後更新:2020-08-13 16:30:02